createdAt,value
2022-10-19T00:01:51.989Z,9.08
2022-10-19T00:04:19.060Z,9.26
2022-10-19T00:06:47.023Z,9.15
2022-10-19T00:09:15.661Z,9.06
2022-10-19T00:11:44.903Z,8.98
2022-10-19T00:14:14.773Z,8.92
2022-10-19T00:16:42.971Z,8.93
2022-10-19T00:19:14.423Z,9.13
2022-10-19T00:21:41.652Z,9.16
2022-10-19T00:24:08.519Z,9.06
2022-10-19T00:26:35.408Z,8.75
2022-10-19T00:29:02.627Z,8.89
2022-10-19T00:31:29.367Z,8.67
2022-10-19T00:33:57.806Z,8.60
2022-10-19T00:36:36.081Z,8.61
2022-10-19T00:39:04.685Z,8.69
2022-10-19T00:41:33.877Z,8.81
2022-10-19T00:44:03.302Z,8.75
2022-10-19T00:46:33.224Z,8.72
2022-10-19T00:49:10.911Z,8.72
2022-10-19T00:51:41.274Z,8.83
2022-10-19T00:54:09.270Z,8.86
2022-10-19T00:56:37.663Z,8.82
2022-10-19T00:59:05.951Z,8.95
2022-10-19T01:01:34.129Z,8.76
2022-10-19T01:04:02.054Z,8.83
2022-10-19T01:06:28.945Z,8.85
2022-10-19T01:08:55.579Z,8.74
2022-10-19T01:11:54.740Z,8.78
2022-10-19T01:14:27.227Z,8.64
2022-10-19T01:17:26.701Z,8.62
2022-10-19T01:20:28.216Z,8.68
2022-10-19T01:23:29.034Z,8.54
2022-10-19T01:26:31.042Z,8.57
2022-10-19T01:29:06.704Z,8.60
2022-10-19T01:31:35.969Z,8.44
2022-10-19T01:34:21.029Z,8.34
2022-10-19T01:37:15.550Z,8.40
2022-10-19T01:39:52.428Z,8.19
2022-10-19T01:42:49.699Z,8.20
2022-10-19T01:45:27.830Z,8.07
2022-10-19T01:48:28.919Z,8.16
2022-10-19T01:51:09.660Z,8.14
2022-10-19T01:53:41.963Z,8.27
2022-10-19T01:56:09.435Z,8.10
2022-10-19T01:58:38.875Z,8.14
2022-10-19T02:03:57.795Z,7.92
2022-10-19T02:06:24.528Z,7.99
2022-10-19T02:08:53.143Z,7.99
2022-10-19T02:11:22.043Z,8.00
2022-10-19T02:13:54.538Z,8.02
2022-10-19T02:16:27.599Z,8.02
2022-10-19T02:18:56.493Z,8.02
2022-10-19T02:21:23.859Z,7.97
2022-10-19T02:23:53.400Z,8.10
2022-10-19T02:26:21.852Z,8.33
2022-10-19T02:28:48.978Z,8.29
2022-10-19T02:31:15.952Z,8.10
2022-10-19T02:33:42.829Z,8.04
2022-10-19T02:36:09.520Z,7.94
2022-10-19T02:38:36.504Z,7.87
2022-10-19T02:41:06.423Z,7.94
2022-10-19T02:43:37.177Z,7.90
2022-10-19T02:46:16.391Z,7.71
2022-10-19T02:48:44.375Z,7.65
2022-10-19T02:51:30.800Z,7.62
2022-10-19T02:53:59.047Z,7.71
2022-10-19T02:56:28.213Z,7.76
2022-10-19T02:58:55.219Z,7.69
2022-10-19T03:01:21.838Z,7.51
2022-10-19T03:03:48.506Z,7.58
2022-10-19T03:06:15.208Z,7.52
2022-10-19T03:08:42.251Z,7.56
2022-10-19T03:11:09.115Z,7.54
2022-10-19T03:13:35.764Z,7.48
2022-10-19T03:16:10.790Z,7.54
2022-10-19T03:18:37.451Z,7.47
2022-10-19T03:21:09.514Z,7.48
2022-10-19T03:23:36.718Z,7.52
2022-10-19T03:26:05.619Z,7.45
2022-10-19T03:28:34.646Z,7.25
2022-10-19T03:31:01.742Z,7.36
2022-10-19T03:33:28.476Z,7.32
2022-10-19T03:36:24.619Z,7.35
2022-10-19T03:38:52.316Z,7.44
2022-10-19T03:41:20.682Z,7.32
2022-10-19T03:43:47.712Z,7.45
2022-10-19T03:46:15.053Z,7.45
2022-10-19T03:48:42.377Z,7.28
2022-10-19T03:51:13.349Z,7.13
2022-10-19T03:53:40.791Z,7.05
2022-10-19T03:56:11.560Z,7.04
2022-10-19T03:58:40.389Z,7.18
2022-10-19T04:01:15.211Z,7.01
2022-10-19T04:03:42.339Z,7.05
2022-10-19T04:06:16.913Z,7.08
2022-10-19T04:08:48.836Z,7.17
2022-10-19T04:11:19.774Z,7.20
2022-10-19T04:13:49.618Z,7.11
2022-10-19T04:16:16.437Z,7.11
2022-10-19T04:18:43.376Z,7.04
2022-10-19T04:21:21.178Z,6.94
2022-10-19T04:23:47.839Z,7.11
2022-10-19T04:26:14.652Z,7.15
2022-10-19T04:28:41.385Z,6.90
2022-10-19T04:31:08.185Z,6.79
2022-10-19T04:33:35.302Z,6.79
2022-10-19T04:36:07.380Z,6.69
2022-10-19T04:38:35.188Z,6.68
2022-10-19T04:41:10.098Z,6.66
2022-10-19T04:43:37.695Z,6.66
2022-10-19T04:46:10.590Z,6.94
2022-10-19T04:48:38.310Z,7.00
2022-10-19T04:51:05.353Z,6.86
2022-10-19T04:53:33.567Z,6.75
2022-10-19T04:56:04.504Z,6.77
2022-10-19T04:58:31.529Z,6.77
2022-10-19T05:00:58.277Z,6.75
2022-10-19T05:03:25.058Z,6.90
2022-10-19T05:05:51.622Z,6.99
2022-10-19T05:08:18.486Z,6.89
2022-10-19T05:10:47.656Z,7.01
2022-10-19T05:13:15.033Z,7.34
2022-10-19T05:15:42.079Z,6.92
2022-10-19T05:18:09.276Z,6.94
2022-10-19T05:20:35.951Z,6.86
2022-10-19T05:23:06.302Z,6.90
2022-10-19T05:25:34.083Z,6.99
2022-10-19T05:28:00.881Z,6.83
2022-10-19T05:30:27.562Z,6.72
2022-10-19T05:32:54.264Z,6.97
2022-10-19T05:35:22.697Z,6.97
2022-10-19T05:37:54.487Z,6.83
2022-10-19T05:40:21.293Z,6.80
2022-10-19T05:42:47.956Z,6.82
2022-10-19T05:45:14.634Z,6.63
2022-10-19T05:47:41.298Z,6.57
2022-10-19T05:50:08.363Z,6.66
2022-10-19T05:52:36.455Z,6.55
2022-10-19T05:55:03.592Z,6.59
2022-10-19T05:57:33.215Z,6.62
2022-10-19T06:00:00.114Z,6.79
2022-10-19T06:02:26.818Z,6.69
2022-10-19T06:04:53.511Z,6.61
2022-10-19T06:07:20.099Z,6.49
2022-10-19T06:09:47.909Z,6.55
2022-10-19T06:12:16.226Z,6.50
2022-10-19T06:14:43.381Z,6.55
2022-10-19T06:17:10.799Z,6.76
2022-10-19T06:19:37.535Z,6.79
2022-10-19T06:22:04.131Z,6.96
2022-10-19T06:24:30.829Z,6.97
2022-10-19T06:26:57.452Z,7.14
2022-10-19T06:44:00.793Z,8.30
2022-10-19T06:46:27.485Z,8.38
2022-10-19T06:48:56.398Z,8.78
2022-10-19T06:51:25.533Z,8.98
2022-10-19T06:53:56.607Z,8.89
2022-10-19T06:56:24.872Z,9.06
2022-10-19T06:58:52.328Z,9.06
2022-10-19T07:01:19.097Z,8.86
2022-10-19T07:03:45.841Z,9.67
2022-10-19T07:06:13.442Z,9.55
2022-10-19T07:08:41.805Z,9.97
2022-10-19T07:11:10.697Z,9.85
2022-10-19T07:13:38.191Z,10.38
2022-10-19T07:16:15.900Z,10.50
2022-10-19T07:18:46.628Z,10.60
2022-10-19T07:21:16.178Z,10.39
2022-10-19T07:23:45.129Z,10.49
2022-10-19T07:26:15.633Z,10.95
2022-10-19T07:28:47.442Z,11.07
2022-10-19T07:31:18.002Z,11.28
2022-10-19T07:33:45.139Z,11.69
2022-10-19T07:36:13.668Z,11.93
2022-10-19T07:38:40.962Z,12.01
2022-10-19T07:41:14.172Z,11.99
2022-10-19T07:43:42.564Z,12.00
2022-10-19T07:46:12.804Z,12.54
2022-10-19T07:48:39.733Z,12.13
2022-10-19T07:51:08.200Z,12.45
2022-10-19T07:53:36.031Z,12.10
2022-10-19T07:56:06.203Z,12.07
2022-10-19T07:58:32.999Z,12.38
2022-10-19T08:01:04.388Z,11.99
2022-10-19T08:04:31.283Z,13.22
2022-10-19T08:06:19.225Z,13.43
2022-10-19T08:08:47.109Z,13.71
2022-10-19T08:11:15.276Z,13.72
2022-10-19T08:13:42.493Z,13.51
2022-10-19T08:16:30.077Z,14.36
2022-10-19T08:18:57.929Z,14.63
2022-10-19T08:21:26.100Z,13.48
2022-10-19T08:23:52.772Z,14.91
2022-10-19T08:26:19.585Z,14.61
2022-10-19T08:28:49.249Z,14.68
2022-10-19T08:31:21.097Z,15.83
2022-10-19T08:33:50.454Z,15.70
2022-10-19T08:36:17.391Z,15.76
2022-10-19T08:38:45.460Z,15.35
2022-10-19T08:44:59.871Z,14.68
2022-10-19T08:47:38.749Z,16.07
2022-10-19T08:50:26.658Z,15.78
2022-10-19T08:53:03.827Z,16.25
2022-10-19T08:56:04.916Z,16.90
2022-10-19T08:58:36.540Z,17.04
2022-10-19T09:01:09.483Z,16.32
2022-10-19T09:04:01.841Z,17.47
2022-10-19T09:06:28.666Z,17.10
2022-10-19T09:08:57.407Z,17.17
2022-10-19T09:11:29.549Z,15.73
2022-10-19T09:14:06.258Z,17.66
2022-10-19T09:16:35.099Z,17.63
2022-10-19T09:19:03.146Z,17.65
2022-10-19T09:21:46.105Z,17.38
2022-10-19T09:24:29.978Z,16.52
2022-10-19T09:27:00.026Z,17.79
2022-10-19T09:29:50.463Z,17.20
2022-10-19T09:32:24.503Z,17.42
2022-10-19T09:34:58.911Z,18.08
2022-10-19T09:37:26.889Z,18.09
2022-10-19T09:39:55.669Z,17.40
2022-10-19T09:42:26.482Z,17.91
2022-10-19T09:44:55.141Z,17.96
2022-10-19T09:47:42.561Z,18.00
2022-10-19T09:50:18.002Z,18.14
2022-10-19T09:52:51.466Z,18.78
2022-10-19T09:55:40.935Z,18.61
2022-10-19T09:58:13.686Z,19.51
2022-10-19T10:00:46.810Z,18.12
2022-10-19T10:03:30.922Z,18.75
2022-10-19T10:06:24.091Z,19.13
2022-10-19T10:08:58.182Z,19.45
2022-10-19T10:11:28.497Z,20.02
2022-10-19T10:13:56.255Z,19.26
2022-10-19T10:16:29.384Z,19.87
2022-10-19T10:19:03.983Z,19.23
2022-10-19T10:21:34.986Z,19.97
2022-10-19T10:24:06.849Z,19.80
2022-10-19T10:26:40.215Z,20.22
2022-10-19T10:29:53.843Z,20.79
2022-10-19T10:32:21.520Z,19.26
2022-10-19T10:35:01.317Z,20.49
2022-10-19T10:37:44.640Z,21.30
2022-10-19T10:40:27.970Z,20.84
2022-10-19T10:42:57.958Z,21.32
2022-10-19T10:45:40.289Z,21.04
2022-10-19T10:48:29.087Z,20.36
2022-10-19T10:50:57.338Z,21.17
2022-10-19T10:53:38.147Z,20.60
2022-10-19T10:56:07.176Z,21.30
2022-10-19T10:59:14.409Z,21.61
2022-10-19T11:01:47.803Z,21.08
2022-10-19T11:04:24.693Z,21.83
2022-10-19T11:06:59.336Z,21.66
2022-10-19T11:09:38.640Z,21.95
2022-10-19T11:12:10.303Z,22.03
2022-10-19T11:14:51.364Z,20.53
2022-10-19T11:17:40.041Z,20.00
2022-10-19T11:20:15.058Z,20.18
2022-10-19T11:23:02.285Z,19.98
2022-10-19T11:25:28.764Z,19.38
2022-10-19T11:28:29.378Z,20.42
2022-10-19T11:31:15.831Z,20.02
2022-10-19T11:34:27.068Z,19.85
2022-10-19T11:37:06.146Z,21.52
2022-10-19T11:40:06.794Z,19.70
2022-10-19T11:42:57.203Z,22.37
2022-10-19T11:45:41.191Z,22.36
2022-10-19T11:48:40.414Z,20.70
2022-10-19T11:51:22.285Z,21.55
2022-10-19T11:53:48.936Z,20.79
2022-10-19T11:56:39.098Z,22.22
2022-10-19T11:59:20.622Z,21.30
2022-10-19T12:01:50.357Z,20.49
2022-10-19T12:04:44.981Z,20.49
2022-10-19T12:07:27.928Z,21.11
2022-10-19T12:10:17.087Z,22.87
2022-10-19T12:12:47.866Z,22.45
2022-10-19T12:15:53.968Z,22.71
2022-10-19T12:18:41.918Z,23.80
2022-10-19T12:21:31.226Z,23.15
2022-10-19T12:23:59.390Z,22.27
2022-10-19T12:26:30.567Z,21.88
2022-10-19T12:29:00.681Z,22.27
2022-10-19T12:31:28.938Z,21.71
2022-10-19T12:33:58.709Z,21.23
2022-10-19T12:37:01.159Z,21.95
2022-10-19T12:45:18.866Z,21.32
2022-10-19T12:48:13.379Z,22.61
2022-10-19T12:53:49.365Z,22.47
2022-10-19T12:56:15.941Z,21.95
2022-10-19T12:58:47.669Z,22.47
2022-10-19T13:01:23.344Z,21.56
2022-10-19T13:04:07.924Z,21.65
2022-10-19T13:06:37.930Z,21.85
2022-10-19T13:09:09.672Z,21.72
2022-10-19T13:11:38.449Z,22.08
2022-10-19T13:14:20.280Z,22.16
2022-10-19T13:17:03.572Z,22.43
2022-10-19T13:19:30.217Z,22.08
2022-10-19T13:22:27.677Z,21.55
2022-10-19T13:25:32.500Z,21.65
2022-10-19T13:28:09.417Z,21.41
2022-10-19T13:30:36.099Z,21.69
2022-10-19T13:33:29.589Z,21.69
2022-10-19T13:35:59.019Z,21.39
2022-10-19T13:41:27.932Z,20.84
2022-10-19T13:44:03.535Z,21.35
2022-10-19T13:46:30.141Z,20.65
2022-10-19T13:49:02.632Z,21.38
2022-10-19T13:51:56.245Z,21.25
2022-10-19T13:54:49.447Z,20.21
2022-10-19T13:57:41.439Z,19.84
2022-10-19T14:00:20.517Z,20.26
2022-10-19T14:03:26.665Z,19.73
2022-10-19T14:05:56.668Z,19.45
2022-10-19T14:08:56.744Z,19.50
2022-10-19T14:11:36.699Z,18.98
2022-10-19T14:14:09.450Z,18.98
2022-10-19T14:16:46.087Z,19.16
2022-10-19T14:19:14.740Z,19.38
2022-10-19T14:21:41.448Z,18.77
2022-10-19T14:24:39.665Z,18.61
2022-10-19T14:27:07.945Z,18.34
2022-10-19T14:29:48.276Z,18.45
2022-10-19T14:32:15.647Z,18.03
2022-10-19T14:34:43.968Z,18.34
2022-10-19T14:37:18.376Z,18.41
2022-10-19T14:40:03.627Z,18.06
2022-10-19T14:42:45.477Z,18.19
2022-10-19T14:45:27.581Z,18.09
2022-10-19T14:47:55.632Z,17.83
2022-10-19T14:50:28.088Z,18.26
2022-10-19T14:53:03.486Z,17.86
2022-10-19T14:55:37.827Z,18.06
2022-10-19T14:58:09.645Z,18.43
2022-10-19T15:00:36.485Z,18.47
2022-10-19T15:03:08.194Z,19.19
2022-10-19T15:05:37.899Z,18.98
2022-10-19T15:08:17.908Z,18.99
2022-10-19T15:10:47.124Z,18.99
2022-10-19T15:13:29.049Z,18.68
2022-10-19T15:15:56.000Z,18.72
2022-10-19T15:18:47.592Z,18.94
2022-10-19T15:21:18.783Z,19.28
2022-10-19T15:23:50.672Z,18.72
2022-10-19T15:26:26.050Z,18.71
2022-10-19T15:28:54.074Z,18.43
2022-10-19T15:31:26.101Z,18.77
2022-10-19T15:33:56.018Z,19.23
2022-10-19T15:36:23.863Z,19.23
2022-10-19T15:39:17.688Z,18.17
2022-10-19T15:41:47.287Z,17.82
2022-10-19T15:44:43.537Z,17.95
2022-10-19T15:47:15.988Z,17.82
2022-10-19T15:49:42.642Z,17.71
2022-10-19T15:52:15.972Z,17.61
2022-10-19T15:54:43.151Z,17.17
2022-10-19T15:57:42.408Z,17.14
2022-10-19T16:00:14.967Z,16.83
2022-10-19T16:02:41.692Z,16.86
2022-10-19T16:05:08.870Z,16.55
2022-10-19T16:07:38.761Z,16.48
2022-10-19T16:10:07.213Z,16.48
2022-10-19T16:12:33.928Z,16.25
2022-10-19T16:15:00.684Z,16.39
2022-10-19T16:17:27.563Z,16.22
2022-10-19T16:19:54.265Z,16.03
2022-10-19T16:22:21.139Z,15.98
2022-10-19T16:24:47.784Z,15.67
2022-10-19T16:27:16.346Z,15.69
2022-10-19T16:29:44.487Z,15.40
2022-10-19T16:32:11.405Z,15.31
2022-10-19T16:34:38.254Z,15.29
2022-10-19T16:37:06.938Z,15.18
2022-10-19T16:39:34.504Z,15.14
2022-10-19T16:42:01.420Z,15.02
2022-10-19T16:44:28.117Z,15.01
2022-10-19T16:46:57.048Z,14.91
2022-10-19T16:49:23.941Z,14.89
2022-10-19T16:51:53.363Z,14.75
2022-10-19T16:54:23.315Z,14.71
2022-10-19T16:56:49.997Z,14.70
2022-10-19T16:59:18.522Z,14.59
2022-10-19T17:01:46.272Z,14.54
2022-10-19T17:04:13.500Z,14.44
2022-10-19T17:06:40.886Z,14.33
2022-10-19T17:09:40.869Z,14.30
2022-10-19T17:11:54.870Z,14.34
2022-10-19T17:14:21.471Z,14.22
2022-10-19T17:16:48.169Z,14.12
2022-10-19T17:19:14.791Z,14.20
2022-10-19T17:21:42.556Z,14.06
2022-10-19T17:24:18.465Z,14.04
2022-10-19T17:26:49.064Z,13.88
2022-10-19T17:29:15.677Z,13.86
2022-10-19T17:31:42.719Z,13.74
2022-10-19T17:34:10.335Z,13.68
2022-10-19T17:39:29.109Z,13.65
2022-10-19T17:42:01.829Z,13.69
2022-10-19T17:44:30.620Z,13.64
2022-10-19T17:46:57.765Z,13.58
2022-10-19T17:49:24.424Z,13.43
2022-10-19T17:51:53.320Z,13.48
2022-10-19T17:58:40.397Z,13.22
2022-10-19T18:01:08.223Z,13.28
2022-10-19T18:03:35.477Z,13.20
2022-10-19T18:06:09.727Z,13.28
2022-10-19T18:08:40.005Z,13.27
2022-10-19T18:11:12.554Z,13.30
2022-10-19T18:13:39.944Z,13.27
2022-10-19T18:16:09.494Z,13.20
2022-10-19T18:18:38.182Z,13.24
2022-10-19T18:21:12.075Z,13.19
2022-10-19T18:23:38.799Z,13.24
2022-10-19T18:26:10.668Z,13.22
2022-10-19T18:28:38.275Z,13.15
2022-10-19T18:31:18.071Z,13.12
2022-10-19T18:33:44.894Z,13.10
2022-10-19T18:36:11.598Z,13.06
2022-10-19T18:38:39.278Z,13.04
2022-10-19T18:41:08.649Z,12.97
2022-10-19T18:51:41.837Z,12.79
2022-10-19T18:54:08.445Z,12.82
2022-10-19T18:56:36.663Z,12.76
2022-10-19T19:09:46.108Z,12.55
2022-10-19T19:12:16.188Z,12.47
2022-10-19T19:14:44.100Z,12.54
2022-10-19T19:17:10.635Z,12.39
2022-10-19T19:19:37.286Z,12.38
2022-10-19T19:22:08.613Z,12.29
2022-10-19T19:24:35.792Z,12.27
2022-10-19T19:27:02.408Z,12.22
2022-10-19T19:29:32.240Z,12.18
2022-10-19T19:31:59.075Z,12.11
2022-10-19T19:34:25.823Z,12.11
2022-10-19T19:36:52.549Z,12.10
2022-10-19T19:39:20.858Z,12.10
2022-10-19T19:41:49.435Z,12.03
2022-10-19T19:44:17.716Z,12.06
2022-10-19T19:46:45.283Z,12.08
2022-10-19T19:49:14.241Z,12.00
2022-10-19T19:51:40.765Z,12.01
2022-10-19T19:54:07.639Z,11.99
2022-10-19T19:56:34.318Z,12.00
2022-10-19T19:59:03.884Z,11.97
2022-10-19T20:01:31.591Z,11.93
2022-10-19T20:03:59.238Z,12.00
2022-10-19T20:06:26.228Z,11.89
2022-10-19T20:08:53.462Z,12.00
2022-10-19T20:11:21.161Z,11.96
2022-10-19T20:13:47.835Z,11.93
2022-10-19T20:16:22.802Z,11.97
2022-10-19T20:18:55.725Z,12.04
2022-10-19T20:21:26.663Z,12.00
2022-10-19T20:23:53.358Z,11.94
2022-10-19T20:26:22.107Z,11.97
2022-10-19T20:28:52.401Z,11.91
2022-10-19T20:31:19.916Z,11.91
2022-10-19T20:33:47.961Z,11.89
2022-10-19T20:36:20.147Z,11.87
2022-10-19T20:38:50.163Z,11.87
2022-10-19T20:41:17.574Z,11.75
2022-10-19T20:43:45.279Z,11.79
2022-10-19T20:46:14.989Z,11.86
2022-10-19T20:48:46.425Z,11.85
2022-10-19T20:51:17.862Z,11.85
2022-10-19T20:53:48.830Z,11.86
2022-10-19T20:56:18.143Z,11.80
2022-10-19T20:58:45.438Z,11.79
2022-10-19T21:01:17.782Z,11.69
2022-10-19T21:03:52.836Z,11.67
2022-10-19T21:06:20.484Z,11.59
2022-10-19T21:08:50.222Z,11.58
2022-10-19T21:11:19.991Z,11.52
2022-10-19T21:13:47.651Z,11.52
2022-10-19T21:16:16.582Z,11.50
2022-10-19T21:18:44.663Z,11.41
2022-10-19T21:21:13.120Z,11.41
2022-10-19T21:23:39.661Z,11.29
2022-10-19T21:26:09.407Z,11.34
2022-10-19T21:28:39.221Z,11.29
2022-10-19T21:31:08.935Z,11.24
2022-10-19T21:33:35.999Z,11.24
2022-10-19T21:36:09.957Z,11.21
2022-10-19T21:38:37.915Z,11.19
2022-10-19T21:41:06.575Z,11.19
2022-10-19T21:43:35.328Z,11.19
2022-10-19T21:46:06.701Z,11.17
2022-10-19T21:48:35.269Z,11.24
2022-10-19T21:51:19.047Z,11.27
2022-10-19T21:53:46.869Z,11.25
2022-10-19T21:56:15.822Z,11.28
2022-10-19T21:58:47.075Z,11.27
2022-10-19T22:01:14.564Z,11.24
2022-10-19T22:03:41.200Z,11.19
2022-10-19T22:06:07.941Z,11.12
2022-10-19T22:08:37.873Z,11.08
2022-10-19T22:11:12.651Z,11.04
2022-10-19T22:13:39.294Z,11.00
2022-10-19T22:16:08.430Z,10.95
2022-10-19T22:18:36.387Z,10.90
2022-10-19T22:21:07.601Z,10.83
2022-10-19T22:23:34.280Z,10.70
2022-10-19T22:26:01.036Z,10.69
2022-10-19T22:28:28.113Z,10.64
2022-10-19T22:30:56.003Z,10.53
2022-10-19T22:33:23.169Z,10.59
2022-10-19T22:35:54.395Z,10.55
2022-10-19T22:38:23.911Z,10.49
2022-10-19T22:40:50.409Z,10.55
2022-10-19T22:43:17.016Z,10.50
2022-10-19T22:45:47.773Z,10.50
2022-10-19T22:48:15.349Z,10.46
2022-10-19T22:50:41.933Z,10.50
2022-10-19T22:53:08.651Z,10.52
2022-10-19T22:55:35.419Z,10.48
2022-10-19T22:58:02.242Z,10.53
2022-10-19T23:00:30.122Z,10.59
2022-10-19T23:02:56.674Z,10.60
2022-10-19T23:05:23.604Z,10.63
2022-10-19T23:07:50.113Z,10.67
2022-10-19T23:10:19.697Z,10.70
2022-10-19T23:12:53.355Z,10.77
2022-10-19T23:15:21.423Z,10.83
2022-10-19T23:17:51.113Z,10.90
2022-10-19T23:20:17.605Z,10.85
2022-10-19T23:22:44.134Z,10.91
2022-10-19T23:25:11.637Z,10.95
2022-10-19T23:27:38.401Z,11.01
2022-10-19T23:30:05.679Z,11.00
2022-10-19T23:32:32.357Z,11.08
2022-10-19T23:35:01.493Z,11.07
2022-10-19T23:37:36.953Z,11.11
2022-10-19T23:40:04.506Z,11.19
2022-10-19T23:42:31.054Z,11.21
2022-10-19T23:44:57.583Z,11.25
2022-10-19T23:47:24.414Z,11.22
2022-10-19T23:49:50.929Z,11.28
2022-10-19T23:52:18.626Z,11.31
2022-10-19T23:54:45.125Z,11.25
